Time;durP1;ratioP1;P1;durP2;ratioP2;P2;SDS_P1;SDS_P2;PMS_P1;PMS_P2;Temp;Humidity;BMP_temperature;BMP_pressure;BME280_temperature;BME280_humidity;BME280_pressure;Samples;Min_cycle;Max_cycle;Signal;HPM_P1;HPM_P2
2022/04/19 00:01:40;;;;;;;29.35;15.23;;;;;;;29.77;59.24;100957.44;5036919;28;70371;-36
2022/04/19 00:04:11;;;;;;;33.75;15.82;;;;;;;30.16;61.67;101026.03;5050302;28;65260;-39
2022/04/19 00:06:44;;;;;;;24.00;14.90;;;;;;;30.14;59.94;101028.09;5040156;28;70371;-37
2022/04/19 00:09:17;;;;;;;33.45;16.10;;;;;;;30.16;62.04;101028.72;5040621;28;65368;-36
2022/04/19 00:11:48;;;;;;;28.58;15.55;;;;;;;30.19;62.09;101031.00;5038007;28;70343;-36
2022/04/19 00:14:18;;;;;;;25.77;16.52;;;;;;;30.34;61.72;101032.66;5039330;28;65501;-35
2022/04/19 00:16:49;;;;;;;29.00;15.30;;;;;;;30.42;62.08;101036.00;5037219;28;70278;-38
2022/04/19 00:19:20;;;;;;;33.30;16.17;;;;;;;30.42;61.40;101027.00;5038748;28;66715;-37
2022/04/19 00:21:51;;;;;;;32.13;17.02;;;;;;;30.48;61.13;101028.88;5036139;28;69960;-36
2022/04/19 00:24:21;;;;;;;37.85;18.15;;;;;;;30.56;61.49;101042.16;5027316;28;64999;-35
2022/04/19 00:26:52;;;;;;;37.20;18.92;;;;;;;30.60;61.88;101037.16;5039700;28;69187;-35
2022/04/19 00:29:23;;;;;;;27.15;17.95;;;;;;;30.60;61.48;101031.75;5038103;28;65711;-36
2022/04/19 00:31:53;;;;;;;39.17;19.98;;;;;;;30.66;62.09;101042.53;5038112;28;70505;-38
2022/04/19 00:34:24;;;;;;;31.10;18.05;;;;;;;30.43;62.37;100999.75;5039527;28;66497;-35
2022/04/19 00:36:55;;;;;;;30.80;18.20;;;;;;;30.73;61.54;101037.13;5040281;28;69951;-37
2022/04/19 00:39:26;;;;;;;34.35;17.23;;;;;;;30.74;61.92;101044.19;5036171;28;66549;-37
2022/04/19 00:41:57;;;;;;;35.75;18.45;;;;;;;30.66;62.57;101025.47;5039014;28;70068;-40
2022/04/19 00:44:28;;;;;;;37.42;17.92;;;;;;;30.66;61.68;101030.88;5017521;28;66024;-37
2022/04/19 00:46:58;;;;;;;37.90;16.85;;;;;;;30.62;60.25;101003.41;5005009;28;70518;-37
2022/04/19 00:49:29;;;;;;;22.97;14.60;;;;;;;30.94;58.93;101042.22;5035840;28;65556;-35
2022/04/19 00:52:01;;;;;;;22.65;13.00;;;;;;;31.01;58.02;101038.63;5038864;28;71235;-35
2022/04/19 00:54:33;;;;;;;20.33;13.90;;;;;;;31.13;57.71;101042.34;5032806;28;66419;-36
2022/04/19 00:57:05;;;;;;;24.40;13.43;;;;;;;31.20;57.57;101047.69;5036798;28;69621;-35
2022/04/19 00:59:37;;;;;;;24.13;13.25;;;;;;;31.25;57.62;101046.00;5031659;28;66175;-35
2022/04/19 01:02:08;;;;;;;18.63;13.55;;;;;;;31.32;57.44;101051.38;5033243;28;69251;-35
2022/04/19 01:04:40;;;;;;;18.02;12.93;;;;;;;31.28;56.70;101044.72;5034490;28;65850;-35
2022/04/19 01:07:13;;;;;;;15.55;13.27;;;;;;;31.32;56.39;101045.97;5046195;28;69268;-36
2022/04/19 01:09:46;;;;;;;20.65;12.88;;;;;;;31.44;56.24;101065.09;5036016;28;66260;-35
2022/04/19 01:15:10;;;;;;;18.48;12.20;;;;;;;31.11;55.35;101001.91;5035629;28;65566;-35
2022/04/19 01:18:13;;;;;;;20.33;13.20;;;;;;;31.44;55.50;101063.19;5025506;28;70522;-36
2022/04/19 01:20:48;;;;;;;16.17;12.73;;;;;;;31.53;55.51;101075.44;5038309;28;66377;-36
2022/04/19 01:23:22;;;;;;;13.98;12.20;;;;;;;31.60;55.19;101086.25;5031470;28;69182;-36
2022/04/19 01:25:53;;;;;;;22.80;12.52;;;;;;;31.61;55.21;101083.28;5038869;28;66463;-36
2022/04/19 01:28:24;;;;;;;17.10;12.60;;;;;;;31.63;54.88;101080.38;5022785;28;69845;-35
2022/04/19 01:30:55;;;;;;;17.73;11.90;;;;;;;31.65;54.73;101088.28;5039759;28;65355;-37
2022/04/19 01:33:28;;;;;;;20.23;12.60;;;;;;;31.69;54.45;101081.38;5037999;28;70152;-36
2022/04/19 01:35:59;;;;;;;18.98;12.30;;;;;;;31.70;54.48;101080.31;5033896;28;67334;-37
2022/04/19 01:38:30;;;;;;;15.43;12.13;;;;;;;31.72;54.51;101078.22;5020895;28;70023;-35
2022/04/19 01:41:01;;;;;;;18.60;12.27;;;;;;;31.70;54.51;101070.28;5009841;28;65258;-35
2022/04/19 01:43:51;;;;;;;13.57;11.32;;;;;;;31.76;53.99;101072.13;5026320;28;70485;-35
2022/04/19 01:46:23;;;;;;;14.32;11.32;;;;;;;31.79;53.87;101076.28;5023039;28;66178;-35
2022/04/19 01:48:57;;;;;;;12.55;11.30;;;;;;;31.74;53.83;101073.41;5038309;28;69513;-35
2022/04/19 01:51:28;;;;;;;19.17;12.02;;;;;;;31.86;53.95;101082.47;5038205;28;65594;-36
2022/04/19 01:53:59;;;;;;;;;;;;;;;31.51;54.52;101076.69;5035285;28;69198;-38
2022/04/19 01:56:30;;;;;;;21.48;11.23;;;;;;;31.29;53.39;100984.91;5026331;28;66763;-36
2022/04/19 01:59:21;;;;;;;13.18;11.30;;;;;;;31.89;53.65;101083.91;5031899;28;69084;-36
2022/04/19 02:02:03;;;;;;;15.10;11.85;;;;;;;31.94;53.81;101082.22;5032476;28;66052;-36
2022/04/19 02:04:34;;;;;;;19.55;11.48;;;;;;;31.93;53.14;101083.28;5032329;28;69259;-37
2022/04/19 02:07:06;;;;;;;15.27;11.30;;;;;;;31.96;53.45;101090.97;5064463;28;67514;-36
2022/04/19 02:09:36;;;;;;;18.08;11.95;;;;;;;31.89;52.96;101073.88;5037700;28;69546;-36
2022/04/19 02:12:10;;;;;;;16.95;11.23;;;;;;;32.02;53.29;101092.78;5027382;28;65752;-36
2022/04/19 02:14:55;;;;;;;15.63;10.45;;;;;;;32.03;53.02;101097.16;5032041;28;69883;-35
2022/04/19 02:17:28;;;;;;;15.15;11.75;;;;;;;32.03;52.73;101085.47;5025242;28;66146;-35
2022/04/19 02:20:06;;;;;;;15.82;10.80;;;;;;;31.80;52.68;101064.38;5036971;28;69619;-38
2022/04/19 02:22:39;;;;;;;16.38;10.88;;;;;;;31.99;52.74;101079.66;5038937;28;66981;-37
2022/04/19 02:25:15;;;;;;;11.98;10.90;;;;;;;32.15;52.63;101091.00;5024774;28;70127;-35
2022/04/19 02:27:47;;;;;;;15.30;10.90;;;;;;;32.17;52.44;101091.59;5038130;28;66564;-37
2022/04/19 02:30:21;;;;;;;12.65;11.13;;;;;;;32.19;52.36;101095.75;5037904;28;69591;-36
2022/04/19 02:32:58;;;;;;;13.02;11.65;;;;;;;31.96;52.26;101053.00;5039207;28;65468;-36
2022/04/19 02:35:31;;;;;;;14.15;11.50;;;;;;;32.21;52.35;101090.13;5041891;28;70218;-36
2022/04/19 02:38:04;;;;;;;18.30;11.32;;;;;;;32.18;52.18;101071.53;5032416;28;65868;-36
2022/04/19 02:40:45;;;;;;;11.18;10.18;;;;;;;32.24;52.35;101081.53;5036703;28;70406;-37
2022/04/19 02:43:17;;;;;;;10.95;9.63;;;;;;;32.22;51.96;101061.91;5037498;28;66798;-35
2022/04/19 02:45:54;;;;;;;15.18;11.40;;;;;;;32.31;51.65;101082.25;5038483;28;70251;-35
2022/04/19 02:48:31;;;;;;;11.75;10.48;;;;;;;32.28;52.09;101077.28;5038500;28;66335;-35
2022/04/19 02:51:05;;;;;;;11.35;10.10;;;;;;;32.20;51.77;101048.56;5016805;28;69453;-35
2022/04/19 02:53:36;;;;;;;11.50;9.93;;;;;;;32.35;51.65;101075.34;5019262;28;66635;-36
2022/04/19 02:56:07;;;;;;;12.05;10.50;;;;;;;32.38;51.41;101074.06;5022331;28;69995;-36
2022/04/19 02:58:39;;;;;;;15.02;9.80;;;;;;;32.34;51.84;101060.09;5036049;28;66088;-36
2022/04/19 03:01:11;;;;;;;12.77;10.93;;;;;;;32.42;51.46;101073.38;5026608;28;70115;-37
2022/04/19 03:03:44;;;;;;;16.55;9.95;;;;;;;32.44;51.31;101070.44;5028379;28;66195;-38
2022/04/19 03:06:18;;;;;;;10.63;9.65;;;;;;;32.46;51.39;101069.19;5014792;28;70039;-36
2022/04/19 03:08:49;;;;;;;11.90;10.55;;;;;;;32.45;51.27;101051.19;5028359;28;66971;-36
2022/04/19 03:11:20;;;;;;;14.10;9.68;;;;;;;32.44;51.22;101049.53;5017961;28;70177;-36
2022/04/19 03:13:55;;;;;;;11.90;9.98;;;;;;;32.55;51.22;101061.56;4987179;28;65946;-37
2022/04/19 03:16:27;;;;;;;10.95;9.88;;;;;;;32.57;51.35;101064.03;5020107;28;69570;-37
2022/04/19 03:18:58;;;;;;;15.60;11.40;;;;;;;32.59;51.05;101061.94;5030727;28;66517;-37
2022/04/19 03:21:29;;;;;;;;;;;;;;;32.28;51.46;101056.41;5034883;28;68984;-38
2022/04/19 03:29:38;;;;;;;14.32;10.93;;;;;;;32.55;50.94;101020.81;5035253;28;66465;-36
2022/04/19 03:32:09;;;;;;;19.63;11.23;;;;;;;32.58;51.04;101019.53;5034146;28;70316;-36
2022/04/19 03:34:42;;;;;;;23.35;10.43;;;;;;;32.63;50.61;101019.69;5039368;28;66439;-35
2022/04/19 03:37:15;;;;;;;13.38;10.50;;;;;;;32.71;50.64;101036.50;5044538;28;69859;-36
2022/04/19 03:39:46;;;;;;;12.25;10.80;;;;;;;32.72;50.77;101030.00;5040583;28;66583;-36
2022/04/19 03:42:17;;;;;;;13.50;11.23;;;;;;;32.74;50.56;101027.06;5039402;28;69374;-35
2022/04/19 03:44:47;;;;;;;11.32;10.27;;;;;;;32.72;50.83;101012.88;5040478;28;65898;-36
2022/04/19 03:47:18;;;;;;;12.75;11.43;;;;;;;32.76;50.73;101011.34;5040311;28;69457;-36
2022/04/19 03:49:49;;;;;;;14.40;10.90;;;;;;;32.74;50.66;101007.22;5039892;28;68175;-36
2022/04/19 03:52:20;;;;;;;13.57;10.88;;;;;;;32.74;50.67;100993.66;5036824;28;69822;-36
2022/04/19 03:54:50;;;;;;;12.75;10.88;;;;;;;32.74;50.61;100999.91;5024478;28;66329;-36
2022/04/19 03:57:21;;;;;;;15.65;11.13;;;;;;;32.82;50.55;101002.28;5037168;28;70962;-39
2022/04/19 03:59:53;;;;;;;14.20;11.13;;;;;;;32.71;50.78;100979.47;5040659;28;66035;-35
2022/04/19 04:02:30;;;;;;;15.48;11.20;;;;;;;32.51;50.63;100948.19;5038436;28;69076;-36
2022/04/19 04:05:01;;;;;;;14.30;10.82;;;;;;;32.83;50.60;100974.06;5033520;28;66507;-36
2022/04/19 04:07:32;;;;;;;16.80;11.23;;;;;;;32.90;50.36;100980.22;5035992;28;70386;-36
2022/04/19 04:10:04;;;;;;;12.18;10.68;;;;;;;32.91;50.45;100984.59;5033300;28;66874;-35
2022/04/19 04:12:35;;;;;;;;;;;;;;;32.62;51.33;100980.00;5037073;28;69727;-36
2022/04/19 04:15:06;;;;;;;15.32;10.25;;;;;;;32.93;50.30;100971.63;5022049;28;65924;-36
2022/04/19 04:17:36;;;;;;;16.00;10.65;;;;;;;32.91;50.44;100959.31;5036957;28;69190;-36
2022/04/19 04:20:10;;;;;;;13.40;11.05;;;;;;;33.02;50.13;100966.69;5038115;28;66332;-36
2022/04/19 04:22:41;;;;;;;11.57;10.45;;;;;;;32.96;50.10;100950.44;5035509;28;69951;-36
2022/04/19 04:25:12;;;;;;;11.98;10.32;;;;;;;32.97;50.38;100949.41;5017717;28;65832;-36
2022/04/19 04:27:43;;;;;;;13.10;11.70;;;;;;;33.08;50.24;100956.78;5028035;28;70257;-36
2022/04/19 04:30:13;;;;;;;14.07;11.05;;;;;;;33.10;50.24;100957.38;5040695;28;66482;-37
2022/04/19 04:32:53;;;;;;;13.65;11.63;;;;;;;33.11;50.07;100953.59;5040822;28;70173;-36
2022/04/19 04:35:23;;;;;;;19.27;11.30;;;;;;;33.13;50.08;100948.75;5034181;28;66259;-36
2022/04/19 04:37:54;;;;;;;14.27;11.00;;;;;;;33.12;50.08;100945.19;5031800;28;69995;-37
2022/04/19 04:40:27;;;;;;;17.85;11.55;;;;;;;33.15;50.33;100941.19;5036310;28;65670;-36
2022/04/19 04:43:01;;;;;;;15.93;11.43;;;;;;;33.10;50.19;100932.94;5034504;28;70592;-36
2022/04/19 04:45:32;;;;;;;12.00;10.93;;;;;;;33.16;50.20;100929.25;5035511;28;66845;-40
2022/04/19 04:50:56;;;;;;;19.05;11.77;;;;;;;33.21;50.05;100932.13;5039984;28;65457;-37
2022/04/19 04:53:28;;;;;;;12.43;11.23;;;;;;;33.23;50.05;100938.13;5020157;28;69977;-36
2022/04/19 04:56:15;;;;;;;12.43;11.15;;;;;;;33.06;50.10;100888.25;5034717;28;66200;-36
2022/04/19 04:58:46;;;;;;;12.25;9.95;;;;;;;33.27;50.09;100928.44;5038442;28;71054;-36
2022/04/19 05:01:17;;;;;;;12.50;11.05;;;;;;;33.30;50.04;100921.72;5039316;28;66516;-35
2022/04/19 05:03:48;;;;;;;11.83;10.87;;;;;;;33.30;50.15;100919.81;5038856;28;69883;-36
2022/04/19 05:06:20;;;;;;;;;;;;;;;32.98;50.42;100902.97;5056199;28;65764;-35
2022/04/19 05:08:51;;;;;;;12.68;10.90;;;;;;;33.23;50.00;100888.38;5055394;28;69359;-38
2022/04/19 05:11:22;;;;;;;12.20;11.07;;;;;;;33.33;49.96;100894.06;5040247;28;66220;-37
2022/04/19 05:13:53;;;;;;;12.23;11.07;;;;;;;33.25;49.87;100881.63;5021115;28;69876;-35
2022/04/19 05:16:30;;;;;;;17.73;10.93;;;;;;;33.44;49.70;100901.38;5014183;28;66646;-37
2022/04/19 05:19:03;;;;;;;;;;;;;;;33.13;50.39;100891.69;5038926;28;70112;-35
2022/04/19 05:21:38;;;;;;;12.93;11.73;;;;;;;33.45;49.83;100883.16;5038136;28;66061;-35
2022/04/19 05:24:09;;;;;;;11.63;10.75;;;;;;;33.31;49.72;100848.06;5039864;28;69685;-36
2022/04/19 05:26:40;;;;;;;14.18;11.60;;;;;;;33.49;49.76;100866.13;5038380;28;66272;-36
2022/04/19 05:29:11;;;;;;;13.63;11.87;;;;;;;33.54;49.66;100873.59;5037518;28;71417;-36
2022/04/19 05:31:42;;;;;;;11.45;10.48;;;;;;;33.56;49.47;100872.28;5022363;28;65734;-37
2022/04/19 05:34:15;;;;;;;13.32;11.85;;;;;;;33.58;49.57;100867.44;5003989;28;69826;-37
2022/04/19 05:36:46;;;;;;;13.70;11.38;;;;;;;33.55;49.51;100858.94;5033808;28;66686;-37
2022/04/19 05:39:18;;;;;;;15.63;12.00;;;;;;;33.56;49.41;100847.00;5019764;28;70112;-36
2022/04/19 05:41:49;;;;;;;11.80;10.75;;;;;;;33.59;49.62;100847.34;5035827;28;66367;-37
2022/04/19 05:44:21;;;;;;;12.38;11.18;;;;;;;33.63;49.39;100842.25;5027108;28;69101;-36
2022/04/19 05:46:52;;;;;;;14.63;11.33;;;;;;;33.64;49.56;100841.19;5020411;28;65823;-36
2022/04/19 05:49:24;;;;;;;12.10;10.90;;;;;;;33.68;49.30;100836.91;5002261;28;69533;-36
2022/04/19 05:51:55;;;;;;;12.50;11.18;;;;;;;33.60;49.26;100818.25;5032756;28;66369;-36
2022/04/19 05:54:25;;;;;;;11.73;10.45;;;;;;;33.71;49.09;100824.72;5035762;28;69579;-36
2022/04/19 05:56:58;;;;;;;15.38;11.13;;;;;;;33.71;49.22;100817.41;5035901;28;66440;-34
2022/04/19 05:59:29;;;;;;;13.43;12.05;;;;;;;33.72;49.09;100813.59;5006356;28;70035;-36
2022/04/19 06:04:54;;;;;;;12.00;10.93;;;;;;;33.74;49.36;100802.47;5037040;28;69503;-36
2022/04/19 06:07:32;;;;;;;13.48;12.02;;;;;;;33.67;49.26;100786.28;5038770;28;66295;-36
2022/04/19 06:10:11;;;;;;;13.77;11.82;;;;;;;33.76;49.19;100795.72;5037558;28;70636;-35
2022/04/19 06:12:43;;;;;;;16.67;11.85;;;;;;;33.78;49.30;100784.59;5037090;28;65544;-35
2022/04/19 06:15:16;;;;;;;14.15;11.63;;;;;;;33.45;49.39;100728.16;5037531;28;69342;-38
2022/04/19 06:17:46;;;;;;;18.52;11.20;;;;;;;33.78;49.24;100774.53;5037601;28;66381;-36
2022/04/19 06:20:45;;;;;;;14.20;11.88;;;;;;;33.81;49.14;100776.78;5025827;28;70005;-37
2022/04/19 06:23:16;;;;;;;18.75;11.80;;;;;;;33.76;49.05;100760.34;5035633;28;66391;-36
2022/04/19 06:25:47;;;;;;;13.80;12.32;;;;;;;33.85;49.15;100762.69;5020855;28;70059;-36
2022/04/19 06:28:19;;;;;;;14.30;11.75;;;;;;;33.87;49.13;100757.81;5034879;28;66723;-36
2022/04/19 06:31:20;;;;;;;13.32;11.85;;;;;;;33.88;49.01;100748.59;5022446;28;70413;-37
2022/04/19 06:34:18;;;;;;;15.77;12.68;;;;;;;33.90;48.93;100746.47;5018423;28;65585;-36
2022/04/19 06:37:11;;;;;;;12.82;11.50;;;;;;;33.91;49.32;100737.25;5036611;28;70273;-36
2022/04/19 06:39:46;;;;;;;13.55;12.18;;;;;;;33.93;49.05;100729.63;5029439;28;66744;-34
2022/04/19 06:42:17;;;;;;;14.30;12.57;;;;;;;33.95;48.96;100735.66;5036428;28;69959;-36
2022/04/19 06:45:05;;;;;;;13.00;11.73;;;;;;;33.97;49.19;100728.91;5019672;28;66403;-36
2022/04/19 06:47:40;;;;;;;16.17;12.35;;;;;;;34.01;48.85;100726.50;5031210;28;69387;-36
2022/04/19 06:50:12;;;;;;;13.13;11.48;;;;;;;34.03;48.70;100721.66;5036775;28;66105;-36
2022/04/19 06:52:45;;;;;;;13.77;12.30;;;;;;;34.06;48.59;100721.19;5035445;28;70110;-36
2022/04/19 06:55:35;;;;;;;13.43;12.02;;;;;;;34.08;48.79;100710.06;5021679;28;65266;-36
2022/04/19 06:58:06;;;;;;;15.40;12.77;;;;;;;34.04;48.47;100698.81;5035536;28;69746;-36
2022/04/19 07:00:37;;;;;;;13.55;12.13;;;;;;;34.14;48.78;100709.91;5039826;28;66774;-36
2022/04/19 07:03:08;;;;;;;19.60;12.33;;;;;;;34.18;48.68;100705.59;5040608;28;70187;-36
2022/04/19 07:05:57;;;;;;;16.98;13.02;;;;;;;34.19;48.55;100693.66;5038882;28;65714;-36
2022/04/19 07:08:29;;;;;;;16.15;12.95;;;;;;;34.24;48.61;100688.31;5041664;28;69186;-36
2022/04/19 07:11:00;;;;;;;13.83;12.43;;;;;;;34.24;48.59;100693.75;5040083;28;66975;-37
2022/04/19 07:13:49;;;;;;;14.70;13.20;;;;;;;34.28;48.71;100690.53;5020856;28;69990;-36
2022/04/19 07:16:45;;;;;;;15.23;12.23;;;;;;;34.31;48.27;100698.19;5003191;28;65894;-36
2022/04/19 07:19:19;;;;;;;14.63;12.05;;;;;;;34.31;48.68;100696.28;5021466;28;69411;-36
2022/04/19 07:27:42;;;;;;;16.93;13.30;;;;;;;34.31;48.66;100682.69;5042158;28;66277;-35
2022/04/19 07:30:16;;;;;;;16.00;13.80;;;;;;;34.36;48.58;100671.06;5041040;28;70258;-35
2022/04/19 07:32:47;;;;;;;15.48;12.75;;;;;;;34.32;48.38;100661.72;5021625;28;66240;-35
2022/04/19 07:35:23;;;;;;;14.35;12.93;;;;;;;34.40;48.40;100680.34;5022937;28;70065;-36
2022/04/19 07:37:53;;;;;;;16.17;14.00;;;;;;;34.31;48.68;100673.69;5038572;28;66213;-35
2022/04/19 07:40:34;;;;;;;19.52;13.82;;;;;;;34.32;48.74;100659.00;5034579;28;70537;-36
2022/04/19 07:43:06;;;;;;;15.50;13.93;;;;;;;34.43;48.61;100668.97;5038602;28;66715;-36
2022/04/19 07:45:37;;;;;;;;;;;;;;;34.13;49.27;100675.59;5058294;28;69365;-35
2022/04/19 07:48:08;;;;;;;19.48;14.50;;;;;;;34.22;48.73;100641.44;5040674;28;66627;-36
2022/04/19 07:50:39;;;;;;;18.43;14.07;;;;;;;34.43;48.77;100666.22;5023336;28;70169;-36
2022/04/19 07:53:10;;;;;;;15.63;13.17;;;;;;;34.40;48.73;100653.13;5022600;28;66508;-36
2022/04/19 07:55:41;;;;;;;18.33;13.80;;;;;;;34.42;48.49;100650.97;5036919;28;70739;-36
2022/04/19 07:58:12;;;;;;;22.90;14.90;;;;;;;34.50;48.63;100650.56;5034782;28;66818;-36
2022/04/19 08:00:43;;;;;;;18.00;13.90;;;;;;;34.51;48.46;100644.03;5037138;28;69692;-40
2022/04/19 08:03:14;;;;;;;18.27;13.93;;;;;;;34.58;48.53;100644.72;5033135;28;65606;-35
2022/04/19 08:05:45;;;;;;;22.50;14.63;;;;;;;34.59;48.48;100646.34;5034799;28;70085;-36
2022/04/19 08:08:21;;;;;;;18.50;14.93;;;;;;;34.58;48.47;100639.25;5036195;28;66549;-36
2022/04/19 08:10:52;;;;;;;20.13;13.85;;;;;;;34.63;48.36;100635.75;5036274;28;70267;-36
2022/04/19 08:13:23;;;;;;;16.73;13.55;;;;;;;34.65;48.21;100639.88;5040388;28;66135;-36
2022/04/19 08:15:54;;;;;;;19.40;14.82;;;;;;;34.65;48.35;100633.63;5042233;28;69243;-36
2022/04/19 08:18:25;;;;;;;15.90;14.18;;;;;;;34.66;48.19;100641.56;5040367;28;66391;-36
2022/04/19 08:20:57;;;;;;;16.98;14.13;;;;;;;34.69;48.52;100641.06;5040981;28;70119;-37
2022/04/19 08:23:28;;;;;;;16.38;14.13;;;;;;;34.69;48.41;100632.88;5040575;28;66515;-36
2022/04/19 08:26:08;;;;;;;18.33;13.38;;;;;;;34.69;48.54;100618.44;5032798;28;70451;-36
2022/04/19 08:28:38;;;;;;;14.95;13.30;;;;;;;34.70;48.25;100623.63;5021490;28;65469;-37
2022/04/19 08:31:10;;;;;;;17.25;14.15;;;;;;;34.73;48.46;100629.66;5037084;28;69235;-37
2022/04/19 08:33:41;;;;;;;19.33;14.90;;;;;;;34.69;48.71;100624.69;5040090;28;65208;-36
2022/04/19 08:36:16;;;;;;;18.35;13.45;;;;;;;34.47;48.30;100580.25;5035577;28;69710;-37
2022/04/19 08:38:47;;;;;;;17.73;13.93;;;;;;;34.48;48.55;100585.44;5041662;28;66436;-36
2022/04/19 08:41:21;;;;;;;15.82;14.13;;;;;;;34.73;48.54;100610.56;5040776;28;69875;-37
2022/04/19 08:43:55;;;;;;;17.02;14.25;;;;;;;34.75;48.16;100611.16;5038074;28;65699;-35
2022/04/19 08:46:26;;;;;;;;;;;;;;;34.53;49.03;100624.72;5023727;28;70283;-36
2022/04/19 08:49:03;;;;;;;15.52;13.95;;;;;;;34.06;48.39;100489.03;5021826;28;66147;-36
2022/04/19 08:51:36;;;;;;;17.98;14.70;;;;;;;34.42;48.24;100540.16;5020944;28;70346;-36
2022/04/19 08:59:46;;;;;;;15.82;14.32;;;;;;;34.90;48.62;100592.25;5029016;28;65607;-37
2022/04/19 09:02:24;;;;;;;15.40;14.10;;;;;;;34.48;48.25;100519.25;5020644;28;70439;-36
2022/04/19 09:05:12;;;;;;;16.60;14.90;;;;;;;34.84;48.53;100587.81;5036209;28;66306;-36
2022/04/19 09:07:45;;;;;;;17.63;14.65;;;;;;;34.97;48.67;100592.06;5040581;28;69498;-36
2022/04/19 09:10:29;;;;;;;16.83;15.00;;;;;;;34.53;48.30;100513.88;5040388;28;66266;-35
2022/04/19 09:13:05;;;;;;;16.50;14.75;;;;;;;34.96;47.95;100585.78;5026673;28;69889;-36
2022/04/19 09:15:41;;;;;;;21.05;15.13;;;;;;;35.00;48.33;100581.47;5025321;28;66235;-35
2022/04/19 09:18:33;;;;;;;16.17;14.57;;;;;;;34.87;48.16;100570.97;5033916;28;69137;-36
2022/04/19 09:21:05;;;;;;;17.25;14.50;;;;;;;34.94;48.42;100560.69;5022063;28;65907;-36
2022/04/19 09:23:36;;;;;;;18.70;15.27;;;;;;;35.00;48.20;100580.66;5020181;28;69728;-37
2022/04/19 09:26:08;;;;;;;18.20;15.32;;;;;;;34.87;48.01;100565.50;5024368;28;65558;-37
2022/04/19 09:28:41;;;;;;;16.65;15.05;;;;;;;34.98;48.49;100589.06;5021740;28;70472;-36
2022/04/19 09:31:12;;;;;;;15.93;14.23;;;;;;;34.98;48.73;100589.06;5025086;28;65738;-36
2022/04/19 09:33:43;;;;;;;15.47;13.80;;;;;;;34.83;48.54;100569.84;5036555;28;70211;-35
2022/04/19 09:36:14;;;;;;;17.58;14.15;;;;;;;34.73;48.71;100559.63;5024769;28;65357;-35
2022/04/19 09:38:56;;;;;;;16.52;14.90;;;;;;;34.86;48.63;100588.41;5020686;28;70182;-37
2022/04/19 09:41:32;;;;;;;23.70;15.87;;;;;;;34.93;48.96;100598.00;5020780;28;66265;-35
2022/04/19 09:44:15;;;;;;;19.52;15.95;;;;;;;34.89;48.75;100601.50;5020386;28;69978;-36
2022/04/19 09:47:08;;;;;;;19.55;15.93;;;;;;;34.82;49.17;100603.59;5026500;28;66549;-35
2022/04/19 09:49:50;;;;;;;18.75;15.38;;;;;;;34.89;49.11;100596.06;5018930;28;69249;-35
2022/04/19 09:52:23;;;;;;;20.08;15.88;;;;;;;34.89;49.17;100601.50;5019259;28;66211;-36
2022/04/19 09:55:11;;;;;;;18.90;15.45;;;;;;;34.45;49.03;100541.53;5032749;28;69953;-36
2022/04/19 09:57:47;;;;;;;28.95;17.52;;;;;;;34.77;48.92;100593.47;5032744;28;65466;-36
2022/04/19 10:00:19;;;;;;;16.08;14.43;;;;;;;34.87;49.18;100609.09;5037004;28;69580;-36
2022/04/19 10:08:30;;;;;;;19.20;15.77;;;;;;;34.80;49.34;100630.25;5038436;28;65744;-36
2022/04/19 10:11:02;;;;;;;17.55;15.60;;;;;;;34.81;49.46;100632.75;5028324;28;69645;-36
2022/04/19 10:13:36;;;;;;;21.55;15.68;;;;;;;34.78;49.43;100643.34;5020945;28;65817;-36
2022/04/19 10:16:12;;;;;;;20.77;15.93;;;;;;;34.77;49.38;100641.66;5020152;28;69691;-36
2022/04/19 10:18:46;;;;;;;34.90;19.95;;;;;;;34.60;52.79;100639.00;5033946;28;66254;-39
2022/04/19 10:21:26;;;;;;;31.35;19.23;;;;;;;34.05;53.39;100580.75;5031250;28;69497;-37
2022/04/19 10:24:13;;;;;;;31.85;20.23;;;;;;;33.93;54.03;100588.13;5023786;28;66546;-37
2022/04/19 10:26:46;;;;;;;29.33;19.55;;;;;;;33.62;54.21;100537.84;5023919;28;70442;-36
2022/04/19 10:29:16;;;;;;;28.83;18.70;;;;;;;34.32;54.99;100657.09;5032009;28;66264;-37
2022/04/19 10:32:06;;;;;;;26.50;18.88;;;;;;;34.15;55.66;100640.78;5029293;28;70257;-36
2022/04/19 10:34:44;;;;;;;29.67;18.30;;;;;;;34.21;55.86;100655.28;5023250;28;65407;-37
2022/04/19 10:37:15;;;;;;;29.88;18.75;;;;;;;34.17;55.97;100665.84;5026904;28;69978;-36
2022/04/19 10:39:48;;;;;;;38.40;18.33;;;;;;;34.15;56.10;100664.44;5034513;28;65545;-37
2022/04/19 10:42:37;;;;;;;30.83;17.63;;;;;;;33.86;56.35;100639.19;5034150;28;70237;-37
2022/04/19 10:45:13;;;;;;;25.75;17.02;;;;;;;34.12;56.75;100676.66;5023307;28;65754;-37
2022/04/19 10:47:54;;;;;;;25.77;16.23;;;;;;;34.06;56.93;100683.09;5023107;28;70527;-38
2022/04/19 10:50:35;;;;;;;37.28;16.48;;;;;;;34.08;57.83;100683.69;5036758;28;65899;-37
2022/04/19 10:53:08;;;;;;;37.22;16.38;;;;;;;34.04;57.75;100690.63;5043105;28;70466;-37
2022/04/19 10:56:06;;;;;;;30.45;16.08;;;;;;;34.03;58.03;100691.72;5031373;28;65059;-37
2022/04/19 10:58:42;;;;;;;19.45;15.07;;;;;;;33.79;59.13;100661.94;5026591;28;69575;-37
2022/04/19 11:01:32;;;;;;;30.35;15.35;;;;;;;33.66;57.78;100635.06;5034226;28;66507;-37
2022/04/19 11:04:04;;;;;;;23.10;13.88;;;;;;;34.24;56.46;100698.34;5031354;28;70378;-36
2022/04/19 11:06:38;;;;;;;17.00;11.68;;;;;;;34.31;55.50;100706.38;5017890;28;66073;-36
2022/04/19 11:09:15;;;;;;;18.98;13.15;;;;;;;33.99;54.95;100636.13;5027593;28;70411;-37
2022/04/19 11:11:51;;;;;;;23.00;13.20;;;;;;;33.99;54.30;100638.84;5035276;28;66634;-37
2022/04/19 11:14:35;;;;;;;16.85;10.85;;;;;;;34.01;53.76;100650.31;5032915;28;69252;-38
2022/04/19 11:17:20;;;;;;;23.88;12.20;;;;;;;34.39;53.85;100727.72;5038086;28;65144;-37
2022/04/19 11:20:04;;;;;;;20.50;11.73;;;;;;;34.48;53.75;100727.06;5031427;28;69264;-35
2022/04/19 11:22:46;;;;;;;17.73;11.15;;;;;;;34.47;53.24;100725.41;5030336;28;65358;-37
2022/04/19 11:25:36;;;;;;;21.17;11.27;;;;;;;34.32;53.55;100727.06;5038608;28;70529;-36
2022/04/19 11:28:09;;;;;;;15.50;10.98;;;;;;;34.52;53.03;100738.31;5034978;28;65466;-37
2022/04/19 11:30:45;;;;;;;18.38;10.23;;;;;;;34.18;53.01;100686.53;5027288;28;69849;-37
2022/04/19 11:33:45;;;;;;;17.15;10.27;;;;;;;34.40;53.11;100751.16;5028802;28;66143;-38
2022/04/19 11:36:16;;;;;;;19.85;10.73;;;;;;;34.54;52.87;100757.91;5009680;28;70553;-36
2022/04/19 11:38:51;;;;;;;17.83;10.65;;;;;;;34.52;52.61;100770.97;5020904;28;65224;-37
2022/04/19 11:46:47;;;;;;;13.85;10.15;;;;;;;34.41;52.74;100753.66;5031163;28;69278;-38
2022/04/19 11:49:25;;;;;;;17.80;10.38;;;;;;;34.48;52.52;100772.53;5034997;28;66535;-38
2022/04/19 11:52:02;;;;;;;17.77;10.25;;;;;;;34.07;52.56;100702.97;5026263;28;70452;-39
2022/04/19 11:54:34;;;;;;;15.02;11.02;;;;;;;34.11;54.04;100764.84;5021158;28;65895;-38
2022/04/19 11:57:08;;;;;;;20.58;11.90;;;;;;;34.03;54.67;100781.53;5040923;28;69714;-36
2022/04/19 11:59:43;;;;;;;23.33;10.20;;;;;;;33.84;55.21;100777.38;5033864;28;64608;-36
2022/04/19 12:02:22;;;;;;;20.85;11.73;;;;;;;33.81;55.74;100787.66;5022247;28;70131;-37
2022/04/19 12:04:59;;;;;;;26.48;11.05;;;;;;;33.32;56.44;100713.78;5025383;28;66669;-40
2022/04/19 12:07:45;;;;;;;20.35;10.10;;;;;;;33.59;57.34;100763.00;5037817;28;70629;-37
2022/04/19 12:10:27;;;;;;;24.17;10.70;;;;;;;33.69;57.69;100788.78;5013813;28;66119;-36
2022/04/19 12:13:04;;;;;;;18.83;10.25;;;;;;;33.62;58.22;100802.50;5028139;28;69370;-38
2022/04/19 12:15:43;;;;;;;19.75;10.45;;;;;;;33.62;58.71;100798.97;5003320;28;65664;-36
2022/04/19 12:18:38;;;;;;;15.02;9.98;;;;;;;33.52;58.95;100807.72;5031869;28;69882;-35
2022/04/19 12:21:13;;;;;;;25.52;11.20;;;;;;;33.56;59.09;100804.31;5033241;28;65358;-36
2022/04/19 12:23:52;;;;;;;19.35;10.35;;;;;;;33.55;59.37;100810.00;5023968;28;70071;-37